Bement, Illinois
Current Conditions -  °F | °C
As of 10:43 PM on Saturday 22 Nov 2014 (Local Time) from KDEC Reporting Station
Light Rain Light Rain  
Wind Chill: 51°   Ceiling: 2600
Heat Index: 51°   Visibility: 8mi
Dew Point: 48°   Wind: 10mph
Humidity: 89%   Direction: 180°S
Pressure: 29.9"   Gusts: NA
Location:  39.92°N, 88.57°W
Report Text: KDEC 230443Z 18009KT 8SM -RA BKN026 BKN034 OVC090 11/09 A2990 RMK AO2 P0008 T01060089
Loading
Personal Weather Stations






























Interactive Weather Map New forecast layout! Learn more

10-Day Weather Forecast

Advertisements
Track Severe Weather on mobile